Flight Track Log - Related Links

Times and Time Zones

All times are in EDT time to prevent confusion due to time zone crossing. See the N100WX flight status page for this flight to view local times or setup timezone preferences in your user account.

Time Position Orientation Groundspeed Altitude Reporting Facility
EDT Latitude Longitude Course Direction KTS MPH feet Rate Location/Type
Tue 06:30:31 PM 40.8167 -74.0500 55° Northeast 149 171 1,200  Level New York TRACON
Tue 06:31:37 PM 40.8500 -74.0000 49° Northeast 196 226 1,600 476 Climbing New York TRACON
Tue 06:32:37 PM 40.9000 -73.9667 27° Northeast 204 235 2,200 850 Climbing New York TRACON
Tue 06:33:37 PM 40.9500 -73.9167 37° Northeast 219 252 3,300 1,650 Climbing New York TRACON
Tue 06:34:37 PM 40.9833 -73.8667 49° Northeast 212 244 5,500 1,800 Climbing New York TRACON
Tue 06:35:37 PM 41.0333 -73.8000 45° Northeast 221 254 6,900 2,050 Climbing New York TRACON
Tue 06:36:00 PM 40.8520 -74.0572 55° Northeast  Level Estimated
Tue 06:36:37 PM 41.0667 -73.7500 49° Northeast 205 236 9,600  Level New York TRACON
Tue 06:37:37 PM 41.1000 -73.6833 56° Northeast 246 283 10,600 1,450 Climbing New York TRACON
Tue 06:38:37 PM 41.1500 -73.6000 51° Northeast 272 313 12,500 1,789 Climbing New York TRACON
Tue 06:39:31 PM 41.2000 -73.5333 45° Northeast 282 325 14,000 1,523 Climbing New York TRACON
Tue 06:41:50 PM 41.3006 -73.3436 55° Northeast 291 335 17,400 1,055 Climbing Boston Center
Tue 06:42:50 PM 41.3617 -73.2478 50° Northeast 302 348 17,500  Climbing Boston Center
Tue 06:43:50 PM 41.4061 -73.1708 52° Northeast 296 341 17,400 -50 Descending Boston Center
Tue 06:44:50 PM 41.4650 -73.0772 50° Northeast 291 335 17,400  Level Boston Center
Tue 06:45:50 PM 41.5133 -73.0000 50° Northeast 291 335 17,400 50 Level Boston Center
Tue 06:46:50 PM 41.5678 -72.9089 51° Northeast 291 335 17,500 50 Climbing Boston Center
Tue 06:47:50 PM 41.6161 -72.8344 49° Northeast 291 335 17,500  Level Boston Center
Tue 06:49:02 PM 41.6747 -72.7431 49° Northeast 291 335 17,500  Level Boston Center
Tue 06:50:02 PM 41.7353 -72.6403 52° Northeast 291 335 17,500  Level Boston Center
Tue 06:51:02 PM 41.7856 -72.5625 49° Northeast 291 335 17,500  Level Boston Center
Tue 06:52:02 PM 41.8419 -72.4708 50° Northeast 291 335 17,500  Level Boston Center
Tue 06:53:02 PM 41.8897 -72.3956 50° Northeast 291 335 17,500 -650 Level Boston Center
Tue 06:54:02 PM 41.9503 -72.2978 50° Northeast 298 343 16,200 -950 Descending Boston Center
Tue 06:55:02 PM 42.0000 -72.2194 49° Northeast 310 357 15,600 -300 Descending Boston Center
Tue 06:56:02 PM 42.0561 -72.1242 52° Northeast 304 350 15,600 -45 Level Boston Center
Tue 06:57:14 PM 42.0997 -72.0539 50° Northeast 283 326 15,500 -45 Descending Boston Center
Tue 06:58:14 PM 42.1617 -71.9556 50° Northeast 271 312 15,500 -50 Level Boston Center
Tue 06:59:14 PM 42.2094 -71.8739 52° Northeast 271 312 15,400 -1,000 Descending Boston Center
Tue 07:00:14 PM 42.2403 -71.8203 52° Northeast 266 306 13,500 -2,350 Descending Boston Center
Tue 07:01:14 PM 42.2939 -71.7383 48° Northeast 266 306 10,700 -2,900 Descending Boston Center
Tue 07:02:14 PM 42.3475 -71.6481 51° Northeast 261 300 7,700 -2,591 Descending Boston Center
Tue 07:03:26 PM 42.3969 -71.5686 50° Northeast 255 293 5,000 -2,250 Descending Boston Center
Tue 07:15:00 PM 42.4190 -71.4846 36° Northeast  Level Estimated
Tue 07:22:00 PM 42.4699 -71.2890 186° South  Level Estimated
Tue 07:23:00 PM 42.4667 -71.2833 186° South  Level FlightAware Approximate
Tue 07:24:00 PM 42.4699 -71.2890 186° South  Level Estimated
Tue 07:25:00 PM 42.4667 -71.2833 186° South  Level FlightAware Approximate

Login

Don't have an account? Register now (free) for customized features, flight alerts, and more!